Time;durP1;ratioP1;P1;durP2;ratioP2;P2;SDS_P1;SDS_P2;PMS_P1;PMS_P2;Temp;Humidity;BMP_temperature;BMP_pressure;BME280_temperature;BME280_humidity;BME280_pressure;Samples;Min_cycle;Max_cycle;Signal;HPM_P1;HPM_P2
2021/04/20 00:00:29;;;;;;;8.70;4.45;;;10.70;44.00;;;;;;5015382;28;20038;-78
2021/04/20 00:02:55;;;;;;;6.90;4.43;;;10.60;44.20;;;;;;5016159;28;20054;-79
2021/04/20 00:05:21;;;;;;;7.53;4.00;;;10.60;44.30;;;;;;5015843;28;20033;-78
2021/04/20 00:07:47;;;;;;;7.68;3.67;;;10.60;44.30;;;;;;5015526;28;20048;-78
2021/04/20 00:10:16;;;;;;;6.97;4.03;;;10.60;44.40;;;;;;5015555;28;20557;-78
2021/04/20 00:12:42;;;;;;;5.05;3.67;;;10.60;44.50;;;;;;4998003;28;20038;-77
2021/04/20 00:15:11;;;;;;;5.72;3.65;;;10.70;44.40;;;;;;5015945;28;20048;-77
2021/04/20 00:17:37;;;;;;;6.53;3.22;;;10.60;44.50;;;;;;5015521;28;20038;-77
2021/04/20 00:20:09;;;;;;;5.75;3.50;;;10.60;44.40;;;;;;5015181;28;20050;-76
2021/04/20 00:22:34;;;;;;;6.00;3.85;;;10.60;44.40;;;;;;5015405;28;20438;-76
2021/04/20 00:25:00;;;;;;;6.40;3.20;;;10.60;44.30;;;;;;5014958;28;20049;-77
2021/04/20 00:27:27;;;;;;;7.28;3.40;;;10.60;44.30;;;;;;5015222;28;20172;-77
2021/04/20 00:29:52;;;;;;;6.07;3.28;;;10.60;44.10;;;;;;5013917;28;20045;-77
2021/04/20 00:32:19;;;;;;;8.10;3.50;;;10.70;44.10;;;;;;5015163;28;20040;-76
2021/04/20 00:34:45;;;;;;;5.03;3.28;;;10.60;43.90;;;;;;5015090;28;20041;-77
2021/04/20 00:37:10;;;;;;;5.60;3.38;;;10.60;43.70;;;;;;5014938;28;20049;-76
2021/04/20 00:39:38;;;;;;;5.50;3.33;;;10.60;43.60;;;;;;5015111;28;20046;-77
2021/04/20 00:42:06;;;;;;;6.32;3.05;;;10.60;43.40;;;;;;5014759;28;20512;-77
2021/04/20 00:44:32;;;;;;;5.72;3.40;;;10.60;43.00;;;;;;4997250;28;20046;-76
2021/04/20 00:46:59;;;;;;;6.18;3.28;;;10.50;42.60;;;;;;5014706;28;20029;-76
2021/04/20 00:49:26;;;;;;;6.60;3.42;;;10.50;42.30;;;;;;5013801;28;20048;-77
2021/04/20 00:51:52;;;;;;;6.90;2.90;;;10.50;42.00;;;;;;4997329;28;20030;-77
2021/04/20 00:54:18;;;;;;;7.65;3.25;;;10.50;41.90;;;;;;5015042;28;20052;-76
2021/04/20 00:56:45;;;;;;;6.50;3.40;;;10.40;41.40;;;;;;5014444;28;20034;-77
2021/04/20 00:59:12;;;;;;;5.18;3.40;;;10.40;41.10;;;;;;5013662;28;20049;-76
2021/04/20 01:01:38;;;;;;;8.93;3.78;;;10.40;40.80;;;;;;5014771;28;20061;-76
2021/04/20 01:04:04;;;;;;;5.07;3.05;;;10.30;40.30;;;;;;5013288;28;20034;-76
2021/04/20 01:06:31;;;;;;;7.70;3.00;;;10.30;40.00;;;;;;4996880;28;20030;-76
2021/04/20 01:08:58;;;;;;;3.72;2.70;;;10.30;39.90;;;;;;5012941;28;20045;-77
2021/04/20 01:11:24;;;;;;;6.07;2.97;;;10.30;39.80;;;;;;5014168;28;20037;-77
2021/04/20 01:13:51;;;;;;;5.30;3.00;;;10.30;39.60;;;;;;5013219;28;20124;-77
2021/04/20 01:16:21;;;;;;;4.22;2.90;;;10.30;39.30;;;;;;5013058;28;20049;-76
2021/04/20 01:18:47;;;;;;;7.45;2.97;;;10.20;39.10;;;;;;5014402;28;20077;-77
2021/04/20 01:21:14;;;;;;;5.35;3.28;;;10.10;38.90;;;;;;5014428;28;20034;-77
2021/04/20 01:24:09;;;;;;;5.78;2.95;;;10.20;38.90;;;;;;5013939;28;20461;-76
2021/04/20 01:26:40;;;;;;;5.63;2.85;;;10.20;38.70;;;;;;5014241;28;20034;-76
2021/04/20 01:29:07;;;;;;;5.72;2.75;;;10.20;38.50;;;;;;4980654;28;20048;-77
2021/04/20 01:31:35;;;;;;;5.00;2.35;;;10.10;38.40;;;;;;5013904;28;20041;-76
2021/04/20 01:34:02;;;;;;;4.05;2.90;;;10.20;38.20;;;;;;5014029;28;20050;-78
2021/04/20 01:36:28;;;;;;;7.18;3.40;;;10.20;38.00;;;;;;5013795;28;20046;-77
2021/04/20 01:38:55;;;;;;;5.90;2.95;;;10.20;37.90;;;;;;5013285;28;20064;-76
2021/04/20 01:41:23;;;;;;;4.95;2.67;;;10.20;37.90;;;;;;5014220;28;20038;-77
2021/04/20 01:43:51;;;;;;;9.45;2.78;;;10.20;37.70;;;;;;5014167;28;20042;-78
2021/04/20 01:46:17;;;;;;;5.72;3.15;;;10.20;37.60;;;;;;4996603;28;20088;-77
2021/04/20 01:48:45;;;;;;;4.50;2.78;;;10.20;37.60;;;;;;5014392;28;20090;-78
2021/04/20 01:51:12;;;;;;;5.13;2.67;;;10.10;37.40;;;;;;5014016;28;20048;-76
2021/04/20 01:53:38;;;;;;;3.40;2.42;;;10.20;37.40;;;;;;5014100;28;20067;-76
2021/04/20 01:56:06;;;;;;;3.00;2.35;;;10.10;37.30;;;;;;5013971;28;20087;-76
2021/04/20 01:58:33;;;;;;;6.13;2.83;;;10.10;37.30;;;;;;5012438;28;20041;-76
2021/04/20 02:01:05;;;;;;;5.22;2.47;;;10.10;37.30;;;;;;5012334;28;20034;-76
2021/04/20 02:03:34;;;;;;;7.20;2.95;;;10.10;37.30;;;;;;5013464;28;20042;-76
2021/04/20 02:06:00;;;;;;;5.93;2.72;;;10.10;37.20;;;;;;5013660;28;20410;-77
2021/04/20 02:08:27;;;;;;;5.93;2.67;;;10.00;37.10;;;;;;4995899;28;20033;-77
2021/04/20 02:10:54;;;;;;;6.38;2.60;;;10.00;37.20;;;;;;5013410;28;20049;-78
2021/04/20 02:13:21;;;;;;;5.13;2.83;;;10.00;37.20;;;;;;4995835;28;20040;-78
2021/04/20 02:15:47;;;;;;;5.32;2.78;;;10.00;37.20;;;;;;5013876;28;20048;-79
2021/04/20 02:18:14;;;;;;;3.78;2.67;;;10.00;37.30;;;;;;5012376;28;20073;-77
2021/04/20 02:20:41;;;;;;;5.45;2.67;;;10.00;37.20;;;;;;5011912;28;20151;-78
2021/04/20 02:23:08;;;;;;;3.53;2.80;;;10.00;37.20;;;;;;5013125;28;20045;-77
2021/04/20 02:25:34;;;;;;;7.25;3.28;;;10.00;37.30;;;;;;5013013;28;20038;-75
2021/04/20 02:28:01;;;;;;;3.75;2.63;;;10.00;37.40;;;;;;5013082;28;20037;-76
2021/04/20 02:30:28;;;;;;;6.95;3.15;;;10.00;37.30;;;;;;5012823;28;20156;-75
2021/04/20 02:32:56;;;;;;;7.05;3.10;;;10.00;37.30;;;;;;5012717;28;20052;-77
2021/04/20 02:35:22;;;;;;;6.70;2.70;;;9.90;37.30;;;;;;5012123;28;20038;-77
2021/04/20 02:37:49;;;;;;;9.68;3.05;;;9.90;37.30;;;;;;5011860;28;20038;-77
2021/04/20 02:40:21;;;;;;;6.05;2.75;;;9.90;37.30;;;;;;5013283;28;20044;-77
2021/04/20 02:42:52;;;;;;;4.20;2.88;;;9.90;37.30;;;;;;5012996;28;20521;-77
2021/04/20 02:45:21;;;;;;;4.35;3.08;;;9.90;37.40;;;;;;5011409;28;20045;-76
2021/04/20 02:47:47;;;;;;;4.22;3.05;;;9.90;37.40;;;;;;5012696;28;20056;-77
2021/04/20 02:50:16;;;;;;;8.27;2.85;;;9.90;37.30;;;;;;5012133;28;20043;-77
2021/04/20 02:52:45;;;;;;;4.03;2.55;;;9.90;37.30;;;;;;4995348;28;20112;-77
2021/04/20 02:55:12;;;;;;;7.32;2.75;;;9.90;38.00;;;;;;5011197;28;20033;-76
2021/04/20 02:57:42;;;;;;;4.80;2.42;;;9.90;37.40;;;;;;5011250;28;20038;-77
2021/04/20 03:00:12;;;;;;;6.90;2.97;;;9.90;37.40;;;;;;5012631;28;20034;-77
2021/04/20 03:02:40;;;;;;;11.40;2.63;;;9.80;37.30;;;;;;5012078;28;20383;-77
2021/04/20 03:05:19;;;;;;;6.00;2.92;;;9.90;37.30;;;;;;4978419;28;20582;-76
2021/04/20 03:07:47;;;;;;;4.90;2.60;;;9.90;37.30;;;;;;4995054;28;20544;-77
2021/04/20 03:10:15;;;;;;;5.97;2.50;;;9.90;37.20;;;;;;4995131;28;20057;-77
2021/04/20 03:12:43;;;;;;;4.90;2.30;;;9.80;37.10;;;;;;4994871;28;20486;-79
2021/04/20 03:15:12;;;;;;;5.65;2.67;;;9.80;37.10;;;;;;5012383;28;20526;-77
2021/04/20 03:17:44;;;;;;;6.53;2.47;;;9.90;37.30;;;;;;4995201;28;20030;-76
2021/04/20 03:20:11;;;;;;;4.07;2.60;;;9.70;37.10;;;;;;5012450;28;20524;-76
2021/04/20 03:22:40;;;;;;;3.97;2.35;;;9.80;37.30;;;;;;5012390;28;20057;-76
2021/04/20 03:25:08;;;;;;;4.15;2.25;;;9.80;37.30;;;;;;4994712;28;20129;-77
2021/04/20 03:27:41;;;;;;;5.30;2.60;;;9.60;37.20;;;;;;5012240;28;20048;-77
2021/04/20 03:30:08;;;;;;;8.45;3.42;;;9.60;37.20;;;;;;5012300;28;20046;-77
2021/04/20 03:32:37;;;;;;;7.18;2.97;;;9.70;37.30;;;;;;5012462;28;20038;-77
2021/04/20 03:35:23;;;;;;;4.07;2.53;;;9.70;37.40;;;;;;5012332;28;20038;-77
2021/04/20 03:38:10;;;;;;;5.55;2.55;;;9.70;37.40;;;;;;5012190;28;20405;-78
2021/04/20 03:40:38;;;;;;;6.35;2.90;;;9.60;37.40;;;;;;5012054;28;20475;-77
2021/04/20 03:43:13;;;;;;;5.82;2.80;;;9.60;37.40;;;;;;5011886;28;20494;-79
2021/04/20 03:45:50;;;;;;;5.45;2.75;;;9.50;37.40;;;;;;5011002;28;20528;-77
2021/04/20 03:48:41;;;;;;;4.50;3.03;;;9.60;37.50;;;;;;5012487;28;20058;-79
2021/04/20 03:51:14;;;;;;;5.80;2.65;;;9.60;37.60;;;;;;5011879;28;20050;-81
2021/04/20 03:53:46;;;;;;;3.65;2.50;;;9.60;37.60;;;;;;4994796;28;20053;-78
2021/04/20 03:56:13;;;;;;;4.85;2.33;;;9.60;37.50;;;;;;5010854;28;20482;-79
2021/04/20 03:58:41;;;;;;;8.75;2.65;;;9.70;37.60;;;;;;4994750;28;20131;-78
2021/04/20 04:01:11;;;;;;;5.90;2.80;;;9.80;37.50;;;;;;5012332;28;20121;-82
2021/04/20 04:03:39;;;;;;;9.98;2.95;;;9.90;37.40;;;;;;5015701;28;20076;-83
2021/04/20 04:06:06;;;;;;;6.72;2.70;;;9.90;37.30;;;;;;5015559;28;20120;-81
2021/04/20 04:08:36;;;;;;;8.68;3.22;;;9.90;37.20;;;;;;5014132;28;20558;-81
2021/04/20 04:11:05;;;;;;;5.88;2.75;;;9.90;37.20;;;;;;5015497;28;20033;-83
2021/04/20 04:13:32;;;;;;;6.15;2.83;;;9.90;37.10;;;;;;5016025;28;20038;-80
2021/04/20 04:16:01;;;;;;;7.20;3.50;;;9.90;37.20;;;;;;5015447;28;20037;-78
2021/04/20 04:18:29;;;;;;;4.72;2.78;;;9.90;37.10;;;;;;5014097;28;20065;-78
2021/04/20 04:20:59;;;;;;;5.80;3.13;;;9.90;37.20;;;;;;5015258;28;20042;-78
2021/04/20 04:23:30;;;;;;;8.70;3.35;;;9.90;37.30;;;;;;5014155;28;20407;-78
2021/04/20 04:26:07;;;;;;;3.78;2.67;;;9.90;37.30;;;;;;5013989;28;20040;-80
2021/04/20 04:28:34;;;;;;;5.07;3.15;;;9.90;37.40;;;;;;5015445;28;20033;-83
2021/04/20 04:31:05;;;;;;;4.72;2.70;;;9.90;37.40;;;;;;5015120;28;20048;-81
2021/04/20 04:33:34;;;;;;;7.20;3.25;;;9.80;37.40;;;;;;5013870;28;20033;-80
2021/04/20 04:36:01;;;;;;;10.57;3.13;;;9.90;37.50;;;;;;5014916;28;20040;-81
2021/04/20 04:38:28;;;;;;;6.40;2.85;;;9.90;37.50;;;;;;5013712;28;20058;-79
2021/04/20 04:41:00;;;;;;;4.72;2.80;;;9.80;37.40;;;;;;5014839;28;20042;-80
2021/04/20 04:43:27;;;;;;;6.40;3.10;;;9.80;37.50;;;;;;5014760;28;20050;-81
2021/04/20 04:45:57;;;;;;;5.93;2.63;;;9.80;37.60;;;;;;5014738;28;20040;-79
2021/04/20 04:48:25;;;;;;;4.65;3.03;;;9.90;37.60;;;;;;5015032;28;20066;-80
2021/04/20 04:50:53;;;;;;;7.90;3.13;;;9.90;37.60;;;;;;5014375;28;20117;-79
2021/04/20 04:53:20;;;;;;;5.97;2.85;;;9.90;37.60;;;;;;5013326;28;20034;-79
2021/04/20 04:55:47;;;;;;;5.20;3.00;;;10.00;37.60;;;;;;5014362;28;20367;-79
2021/04/20 04:58:15;;;;;;;6.15;2.85;;;10.00;37.60;;;;;;5014515;28;20041;-79
2021/04/20 05:00:43;;;;;;;7.13;2.83;;;10.00;37.50;;;;;;5014936;28;20439;-80
2021/04/20 05:03:09;;;;;;;6.90;2.83;;;10.00;37.30;;;;;;5012802;28;20414;-80
2021/04/20 05:05:37;;;;;;;9.50;2.80;;;10.10;37.40;;;;;;5014150;28;20080;-79
2021/04/20 05:08:03;;;;;;;8.40;3.10;;;10.20;37.30;;;;;;5014444;28;20034;-80
2021/04/20 05:10:29;;;;;;;6.15;3.20;;;10.30;37.20;;;;;;5014317;28;20504;-81
2021/04/20 05:12:57;;;;;;;5.80;3.20;;;10.30;37.10;;;;;;5012905;28;20048;-81
2021/04/20 05:15:23;;;;;;;7.00;2.85;;;10.40;37.10;;;;;;5014131;28;20029;-80
2021/04/20 05:17:50;;;;;;;7.03;3.08;;;10.60;37.00;;;;;;5013853;28;20475;-81
2021/04/20 05:20:19;;;;;;;5.03;3.20;;;10.70;36.80;;;;;;5013775;28;20084;-81
2021/04/20 05:22:46;;;;;;;8.75;3.22;;;10.80;36.80;;;;;;5014164;28;20398;-81
2021/04/20 05:25:16;;;;;;;6.20;3.55;;;11.00;36.70;;;;;;5012618;28;20049;-81
2021/04/20 05:27:47;;;;;;;6.05;3.25;;;11.10;36.40;;;;;;4997888;28;20509;-83
2021/04/20 05:30:14;;;;;;;9.43;3.78;;;11.20;36.30;;;;;;5013814;28;20490;-84
2021/04/20 05:32:45;;;;;;;8.48;3.67;;;11.20;36.20;;;;;;4996235;28;20042;-84
2021/04/20 05:35:12;;;;;;;6.25;3.25;;;11.20;36.20;;;;;;5013182;28;20046;-84
2021/04/20 05:37:40;;;;;;;7.78;2.80;;;11.20;36.10;;;;;;4996362;28;20037;-84
2021/04/20 05:40:16;;;;;;;7.88;3.25;;;11.30;36.20;;;;;;5013959;28;20038;-82
2021/04/20 05:42:42;;;;;;;10.40;3.45;;;11.50;36.20;;;;;;4996691;28;20034;-84
2021/04/20 05:45:11;;;;;;;10.55;4.22;;;11.70;36.10;;;;;;5014018;28;20068;-80
2021/04/20 05:47:51;;;;;;;5.28;2.90;;;11.80;36.50;;;;;;4993119;28;20062;-81
2021/04/20 05:50:31;;;;;;;;;;;;;;;;;;;;;
2021/04/20 05:52:59;;;;;;;8.13;3.85;;;12.40;36.50;;;;;;4990281;28;20109;-81
2021/04/20 05:55:25;;;;;;;7.65;3.70;;;13.00;36.30;;;;;;5009564;28;20034;-79
2021/04/20 05:57:53;;;;;;;6.72;2.90;;;13.40;35.80;;;;;;5009217;28;20479;-79
2021/04/20 06:00:21;;;;;;;4.50;3.05;;;13.80;35.20;;;;;;5008816;28;20129;-81
2021/04/20 06:02:50;;;;;;;7.97;3.47;;;14.10;34.60;;;;;;4993848;28;20034;-79
2021/04/20 06:05:22;;;;;;;9.10;3.38;;;14.40;34.40;;;;;;4994169;28;20046;-84
2021/04/20 06:07:59;;;;;;;6.75;3.15;;;14.80;33.60;;;;;;4997059;28;20105;-90
2021/04/20 06:10:26;;;;;;;5.43;3.20;;;15.10;33.10;;;;;;4994474;28;20581;-84
2021/04/20 06:12:52;;;;;;;8.60;3.13;;;15.40;32.80;;;;;;4989630;28;20034;-90
2021/04/20 06:15:22;;;;;;;6.68;3.15;;;15.80;32.60;;;;;;4989945;28;20402;-83
2021/04/20 06:17:51;;;;;;;7.38;3.80;;;16.00;31.80;;;;;;4975074;28;20031;-80
2021/04/20 06:20:19;;;;;;;4.50;2.95;;;16.30;31.50;;;;;;4975059;28;20057;-84
2021/04/20 06:22:49;;;;;;;8.15;3.35;;;16.30;31.10;;;;;;4977895;28;20027;-89
2021/04/20 06:25:16;;;;;;;8.07;3.72;;;16.50;30.90;;;;;;4978039;28;20057;-83
2021/04/20 06:27:43;;;;;;;5.78;3.40;;;16.60;30.70;;;;;;4977578;28;20049;-88
2021/04/20 06:30:10;;;;;;;10.45;3.47;;;16.70;30.70;;;;;;4976611;28;20042;-85
2021/04/20 06:32:38;;;;;;;6.68;3.97;;;16.80;30.60;;;;;;4977309;28;20038;-90
2021/04/20 06:35:06;;;;;;;7.47;3.95;;;16.70;30.50;;;;;;4978490;28;20073;-89
2021/04/20 06:37:36;;;;;;;8.23;3.58;;;16.80;30.50;;;;;;5009830;28;20491;-90
2021/04/20 06:40:09;;;;;;;7.13;3.70;;;16.90;30.60;;;;;;4977241;28;20046;-86
2021/04/20 06:42:43;;;;;;;7.78;3.50;;;17.00;30.40;;;;;;4975353;28;20287;-84
2021/04/20 06:45:17;;;;;;;7.85;3.28;;;16.90;30.30;;;;;;5008090;28;20419;-88
2021/04/20 06:47:57;;;;;;;7.63;3.90;;;16.90;30.10;;;;;;4975600;28;20466;-86
2021/04/20 06:50:24;;;;;;;8.43;3.50;;;17.00;30.10;;;;;;4978452;28;20049;-90
2021/04/20 06:52:55;;;;;;;8.75;3.38;;;16.90;30.00;;;;;;4978522;28;20042;-86
2021/04/20 06:55:24;;;;;;;6.93;3.40;;;17.00;30.20;;;;;;4979581;28;20035;-89
2021/04/20 06:58:04;;;;;;;10.18;3.83;;;17.00;30.10;;;;;;4978427;28;20070;-86
2021/04/20 07:00:40;;;;;;;7.05;3.80;;;17.10;30.00;;;;;;5009892;28;20177;-88
2021/04/20 07:03:32;;;;;;;11.27;3.58;;;17.00;30.00;;;;;;4976850;28;20495;-86
2021/04/20 07:06:25;;;;;;;9.48;3.38;;;17.10;30.00;;;;;;4975227;28;20115;-86
2021/04/20 07:09:23;;;;;;;5.60;3.90;;;16.90;30.30;;;;;;5007325;28;20517;-86
2021/04/20 07:11:51;;;;;;;11.48;3.40;;;16.90;30.60;;;;;;4974653;28;20039;-86
2021/04/20 07:14:44;;;;;;;9.45;3.92;;;16.90;30.70;;;;;;4974784;28;20104;-86
2021/04/20 07:17:10;;;;;;;8.20;3.53;;;16.90;30.50;;;;;;4991113;28;20030;-85
2021/04/20 07:20:19;;;;;;;9.43;3.75;;;16.90;30.50;;;;;;5006620;28;20039;-84
2021/04/20 07:23:22;;;;;;;10.00;3.17;;;16.90;30.30;;;;;;4956939;28;20511;-86
2021/04/20 07:26:15;;;;;;;10.10;3.78;;;16.50;30.30;;;;;;4976034;28;20053;-86
2021/04/20 07:29:18;;;;;;;4.72;3.42;;;16.40;30.70;;;;;;4990117;28;20027;-84
2021/04/20 07:32:10;;;;;;;5.13;3.58;;;16.30;30.80;;;;;;5009094;28;20202;-85
2021/04/20 07:34:58;;;;;;;7.70;3.80;;;16.30;30.90;;;;;;4977055;28;20039;-83
2021/04/20 07:37:40;;;;;;;8.93;3.85;;;16.20;31.00;;;;;;4978104;28;20118;-84
2021/04/20 07:40:34;;;;;;;4.43;3.20;;;16.20;31.10;;;;;;5009434;28;20050;-81
2021/04/20 07:43:09;;;;;;;10.25;3.85;;;16.20;31.20;;;;;;4978586;28;20042;-79
2021/04/20 07:46:00;;;;;;;13.35;4.18;;;16.10;31.10;;;;;;4978351;28;20042;-78
2021/04/20 07:48:49;;;;;;;7.68;4.47;;;16.10;31.20;;;;;;4993567;28;20118;-80
2021/04/20 07:51:37;;;;;;;7.50;3.92;;;16.00;31.30;;;;;;5015082;28;20042;-80
2021/04/20 07:54:09;;;;;;;6.70;3.55;;;16.00;31.50;;;;;;4980557;28;20038;-79
2021/04/20 07:57:13;;;;;;;8.07;3.97;;;16.00;31.60;;;;;;4996092;28;20057;-81
2021/04/20 07:59:53;;;;;;;8.05;3.95;;;15.90;31.50;;;;;;4976065;28;20046;-81
2021/04/20 08:02:39;;;;;;;8.05;3.85;;;15.80;31.70;;;;;;4976728;28;20066;-81
2021/04/20 08:05:34;;;;;;;9.82;3.88;;;15.70;31.70;;;;;;4996699;28;20061;-83
2021/04/20 08:08:02;;;;;;;13.70;3.80;;;15.70;32.00;;;;;;4998356;28;20045;-83
2021/04/20 08:10:42;;;;;;;8.20;4.15;;;15.60;32.00;;;;;;4998323;28;20049;-81
2021/04/20 08:13:25;;;;;;;7.47;3.85;;;15.60;32.10;;;;;;4997528;28;20063;-79
2021/04/20 08:16:04;;;;;;;6.93;4.20;;;15.50;32.30;;;;;;4979861;28;20042;-80
2021/04/20 08:18:40;;;;;;;8.43;4.25;;;15.50;32.20;;;;;;4997242;28;20035;-81
2021/04/20 08:21:07;;;;;;;;;;;15.30;32.40;;;;;;4996267;28;20494;-83
2021/04/20 08:23:38;;;;;;;12.57;4.40;;;15.40;32.40;;;;;;4998289;28;19932;-82
2021/04/20 08:26:11;;;;;;;7.78;3.97;;;15.40;33.50;;;;;;5013377;28;20042;-82
2021/04/20 08:29:00;;;;;;;9.00;4.28;;;15.30;33.20;;;;;;4999191;28;20387;-83
2021/04/20 08:31:41;;;;;;;12.60;4.63;;;15.30;33.10;;;;;;4997635;28;20101;-85
2021/04/20 08:34:41;;;;;;;10.07;4.30;;;15.30;33.00;;;;;;4999188;28;20056;-84
2021/04/20 08:37:30;;;;;;;8.00;3.95;;;15.40;33.10;;;;;;4979392;28;20694;-84
2021/04/20 08:40:22;;;;;;;14.07;4.35;;;15.30;33.20;;;;;;4998498;28;20038;-82
2021/04/20 08:42:50;;;;;;;10.05;4.22;;;15.30;33.20;;;;;;4995706;28;20057;-82
2021/04/20 08:45:28;;;;;;;8.10;3.58;;;15.20;33.20;;;;;;4997264;28;20084;-82
2021/04/20 08:48:23;;;;;;;9.38;3.97;;;15.10;33.20;;;;;;4997525;28;20142;-81
2021/04/20 08:51:10;;;;;;;7.40;4.10;;;15.00;33.40;;;;;;4998425;28;20022;-82
2021/04/20 08:53:58;;;;;;;9.50;3.90;;;14.80;33.70;;;;;;4998284;28;20364;-83
2021/04/20 08:56:31;;;;;;;7.72;3.42;;;14.70;34.00;;;;;;4980944;28;20038;-83
2021/04/20 08:59:53;;;;;;;6.85;4.13;;;14.60;34.20;;;;;;4996755;28;20494;-82
2021/04/20 09:02:38;;;;;;;7.50;3.88;;;14.60;34.40;;;;;;4976336;28;20035;-82
2021/04/20 09:05:19;;;;;;;7.80;3.63;;;14.60;34.50;;;;;;4960154;28;20043;-81
2021/04/20 09:07:52;;;;;;;11.07;4.18;;;14.50;34.40;;;;;;4991593;28;20046;-83
2021/04/20 09:10:24;;;;;;;10.25;4.20;;;14.50;34.60;;;;;;4997956;28;20069;-82
2021/04/20 09:13:13;;;;;;;10.00;3.70;;;14.60;34.70;;;;;;4997243;28;20037;-83
2021/04/20 09:15:44;;;;;;;9.35;4.40;;;14.60;34.80;;;;;;4986038;28;20125;-81
2021/04/20 09:18:16;;;;;;;9.50;4.60;;;14.60;35.10;;;;;;5017476;28;20045;-81
2021/04/20 09:21:16;;;;;;;8.30;4.47;;;14.60;35.20;;;;;;5017869;28;20037;-80
2021/04/20 09:23:54;;;;;;;9.63;4.30;;;14.60;35.40;;;;;;5016925;28;20073;-83
2021/04/20 09:26:45;;;;;;;8.40;4.13;;;14.60;35.40;;;;;;5016902;28;20038;-81
2021/04/20 09:29:32;;;;;;;9.57;5.30;;;14.60;35.70;;;;;;5004476;28;20106;-84
2021/04/20 09:32:02;;;;;;;13.70;5.35;;;14.50;36.40;;;;;;5015513;28;20109;-82
2021/04/20 09:34:32;;;;;;;12.63;5.65;;;14.50;37.50;;;;;;5016327;28;20536;-81
2021/04/20 09:36:58;;;;;;;10.02;6.18;;;14.40;37.60;;;;;;5015579;28;20057;-81
2021/04/20 09:39:27;;;;;;;11.77;6.13;;;14.30;37.50;;;;;;5017225;28;20052;-86
2021/04/20 09:41:56;;;;;;;12.90;6.65;;;14.30;38.00;;;;;;5016359;28;20034;-86
2021/04/20 09:44:51;;;;;;;11.00;6.60;;;14.20;38.40;;;;;;5015945;28;20336;-84
2021/04/20 09:47:31;;;;;;;17.45;7.85;;;14.20;38.40;;;;;;5014183;28;20050;-82
2021/04/20 09:50:06;;;;;;;15.35;8.40;;;14.20;38.50;;;;;;5014827;28;20101;-90
2021/04/20 09:52:59;;;;;;;14.82;8.48;;;14.10;38.60;;;;;;5016671;28;20076;-88
2021/04/20 09:55:33;;;;;;;14.05;7.70;;;14.10;38.70;;;;;;5001989;28;20037;-95
2021/04/20 09:58:00;;;;;;;10.38;7.13;;;14.10;38.80;;;;;;5018920;28;20037;-90
2021/04/20 10:00:27;;;;;;;11.52;6.93;;;14.00;39.50;;;;;;5016819;28;20045;-92
2021/04/20 10:03:08;;;;;;;19.70;8.07;;;14.00;39.70;;;;;;5018943;28;20421;-93
2021/04/20 10:05:58;;;;;;;13.63;8.23;;;13.90;39.70;;;;;;5019275;28;20046;-90
2021/04/20 10:08:53;;;;;;;11.02;7.15;;;13.90;39.80;;;;;;5014590;28;20482;-90
2021/04/20 10:11:42;;;;;;;17.52;7.93;;;13.90;40.00;;;;;;5015088;28;20052;-90
2021/04/20 10:14:18;;;;;;;17.20;7.57;;;13.80;40.20;;;;;;5015065;28;20199;-89
2021/04/20 10:17:02;;;;;;;10.30;6.25;;;13.90;40.30;;;;;;5016203;28;20072;-86
2021/04/20 10:19:37;;;;;;;10.13;5.93;;;13.90;40.50;;;;;;5015720;28;20048;-89
2021/04/20 10:22:24;;;;;;;14.93;6.32;;;13.70;40.90;;;;;;5013310;28;20042;-90
2021/04/20 10:25:10;;;;;;;12.65;6.30;;;13.70;41.10;;;;;;5015224;28;20379;-92
2021/04/20 10:27:37;;;;;;;10.10;5.68;;;13.70;41.20;;;;;;4997173;28;20478;-81
2021/04/20 10:30:31;;;;;;;10.32;5.18;;;13.70;41.00;;;;;;5013853;28;20113;-90
2021/04/20 10:32:58;;;;;;;9.18;5.60;;;13.70;41.10;;;;;;5011789;28;20140;-91
2021/04/20 10:35:33;;;;;;;8.85;5.15;;;13.60;41.10;;;;;;4997867;28;20048;-87
2021/04/20 10:38:01;;;;;;;9.95;4.93;;;13.60;40.90;;;;;;4988852;28;20034;-86
2021/04/20 10:40:35;;;;;;;8.60;5.60;;;13.60;41.00;;;;;;5015239;28;20050;-88
2021/04/20 10:43:09;;;;;;;12.80;6.15;;;13.50;40.90;;;;;;4995562;28;20070;-88
2021/04/20 10:45:36;;;;;;;11.75;6.18;;;13.50;40.80;;;;;;5013862;28;20515;-95
2021/04/20 10:48:04;;;;;;;10.77;5.65;;;13.50;40.80;;;;;;5015323;28;20486;-94
2021/04/20 10:50:33;;;;;;;14.70;5.38;;;13.40;40.70;;;;;;5013924;28;20491;-89
2021/04/20 10:53:07;;;;;;;10.13;5.43;;;13.40;40.70;;;;;;5015831;28;20038;-93
2021/04/20 10:55:38;;;;;;;13.15;4.82;;;13.30;40.50;;;;;;5020782;28;20042;-93
2021/04/20 10:58:07;;;;;;;15.43;4.78;;;13.20;40.30;;;;;;5013721;28;20116;-84
2021/04/20 11:00:34;;;;;;;10.85;4.10;;;13.10;40.40;;;;;;5012652;28;20088;-82
2021/04/20 11:03:03;;;;;;;9.30;4.28;;;13.10;40.50;;;;;;5012433;28;20092;-83
2021/04/20 11:05:30;;;;;;;9.65;3.88;;;13.10;40.50;;;;;;5013953;28;20176;-86
2021/04/20 11:07:58;;;;;;;8.27;4.05;;;13.00;40.60;;;;;;5012772;28;20509;-86
2021/04/20 11:10:29;;;;;;;9.95;4.32;;;13.00;40.60;;;;;;5013537;28;20056;-86
2021/04/20 11:12:56;;;;;;;11.35;4.22;;;13.00;40.70;;;;;;5000784;28;20073;-88
2021/04/20 11:15:26;;;;;;;10.60;3.90;;;12.90;40.90;;;;;;5018762;28;20044;-90
2021/04/20 11:17:55;;;;;;;9.25;4.00;;;12.90;41.50;;;;;;5017415;28;20040;-84
2021/04/20 11:20:52;;;;;;;8.52;3.75;;;12.90;41.80;;;;;;5018175;28;20046;-93
2021/04/20 11:23:26;;;;;;;6.35;3.63;;;12.90;41.70;;;;;;5006181;28;20045;-89
2021/04/20 11:25:54;;;;;;;6.93;3.50;;;12.90;41.70;;;;;;5017253;28;20091;-91
2021/04/20 11:28:46;;;;;;;8.98;4.00;;;12.90;41.60;;;;;;5023798;28;20038;-87
2021/04/20 11:31:18;;;;;;;14.50;4.60;;;12.90;41.50;;;;;;5021757;28;20048;-89
2021/04/20 11:33:47;;;;;;;11.57;4.80;;;12.80;42.70;;;;;;5016829;28;20070;-79
2021/04/20 11:36:19;;;;;;;16.85;5.03;;;12.70;43.70;;;;;;5016414;28;20041;-80
2021/04/20 11:38:48;;;;;;;17.23;5.70;;;12.60;45.30;;;;;;5016876;28;20639;-86
2021/04/20 11:41:25;;;;;;;16.02;6.45;;;12.40;47.70;;;;;;5017355;28;20126;-89
2021/04/20 11:44:00;;;;;;;13.18;6.13;;;12.30;49.20;;;;;;5016551;28;20042;-80
2021/04/20 11:46:33;;;;;;;11.18;5.97;;;12.10;49.70;;;;;;5015755;28;20380;-84
2021/04/20 11:49:20;;;;;;;9.93;6.03;;;11.90;50.70;;;;;;5016759;28;20518;-78
2021/04/20 11:51:47;;;;;;;8.57;5.53;;;11.90;51.70;;;;;;5017023;28;20045;-83
2021/04/20 11:54:28;;;;;;;10.27;5.70;;;11.70;52.60;;;;;;5015250;28;20092;-82
2021/04/20 11:57:03;;;;;;;7.28;5.60;;;11.50;54.10;;;;;;5016910;28;20044;-82
2021/04/20 11:59:30;;;;;;;7.65;5.60;;;11.40;54.50;;;;;;4998874;28;20104;-83
2021/04/20 12:01:57;;;;;;;9.57;5.45;;;11.30;54.80;;;;;;4998857;28;20183;-87
2021/04/20 12:04:28;;;;;;;8.18;5.28;;;11.20;55.70;;;;;;5018778;28;20450;-87
2021/04/20 12:06:56;;;;;;;9.20;4.95;;;11.10;56.00;;;;;;5022184;28;20103;-85
2021/04/20 12:09:29;;;;;;;8.32;5.80;;;11.10;56.60;;;;;;4998505;28;20516;-84
2021/04/20 12:11:56;;;;;;;8.30;5.43;;;11.00;56.90;;;;;;5014999;28;20168;-83
2021/04/20 12:14:26;;;;;;;8.63;5.22;;;10.90;56.90;;;;;;5015711;28;20478;-85
2021/04/20 12:16:54;;;;;;;6.35;4.78;;;10.80;57.20;;;;;;5015884;28;20141;-84
2021/04/20 12:19:24;;;;;;;7.13;5.07;;;10.80;58.10;;;;;;5014497;28;20459;-85
2021/04/20 12:21:55;;;;;;;6.10;4.40;;;10.70;58.50;;;;;;5014979;28;20119;-80
2021/04/20 12:24:25;;;;;;;5.60;3.83;;;10.80;60.50;;;;;;5016036;28;20054;-85
2021/04/20 12:26:56;;;;;;;5.47;4.00;;;11.20;61.20;;;;;;4997419;28;20029;-79
2021/04/20 12:29:30;;;;;;;4.75;3.75;;;11.40;59.10;;;;;;4997493;28;20069;-88
2021/04/20 12:31:56;;;;;;;5.40;3.72;;;11.30;58.00;;;;;;4998736;28;20561;-83
2021/04/20 12:34:27;;;;;;;5.25;4.25;;;11.30;57.50;;;;;;5015487;28;20072;-91
2021/04/20 12:37:16;;;;;;;5.78;4.80;;;11.10;57.50;;;;;;4998171;28;20030;-90
2021/04/20 12:39:48;;;;;;;4.03;3.55;;;10.90;58.20;;;;;;5017017;28;20486;-86
2021/04/20 12:42:17;;;;;;;4.32;3.70;;;10.70;58.80;;;;;;4998267;28;20162;-88
2021/04/20 12:44:52;;;;;;;6.40;4.40;;;10.60;58.90;;;;;;5014817;28;20046;-89
2021/04/20 12:47:18;;;;;;;7.13;4.10;;;10.60;59.30;;;;;;4998225;28;20037;-85
2021/04/20 12:49:48;;;;;;;4.65;3.85;;;10.30;59.90;;;;;;5015060;28;20064;-86
2021/04/20 12:52:18;;;;;;;4.03;3.47;;;10.40;59.60;;;;;;5003873;28;20065;-91
2021/04/20 12:54:46;;;;;;;7.18;4.47;;;10.40;59.60;;;;;;5020322;28;20048;-88
2021/04/20 12:57:22;;;;;;;5.07;4.03;;;10.20;60.40;;;;;;5015988;28;20042;-92
2021/04/20 12:59:53;;;;;;;;;;;10.20;60.20;;;;;;5014398;28;20072;-90
2021/04/20 13:02:20;;;;;;;5.45;3.60;;;10.20;60.80;;;;;;5014361;28;19914;-90
2021/04/20 13:04:49;;;;;;;4.95;3.65;;;10.10;60.30;;;;;;5017206;28;20156;-91
2021/04/20 13:07:15;;;;;;;5.65;4.05;;;10.10;60.40;;;;;;5015302;28;20099;-87
2021/04/20 13:09:44;;;;;;;4.63;3.90;;;10.00;60.90;;;;;;5016036;28;20030;-87
2021/04/20 13:12:23;;;;;;;4.28;3.78;;;9.90;61.10;;;;;;5015977;28;20083;-86
2021/04/20 13:14:49;;;;;;;4.43;3.70;;;9.80;61.40;;;;;;5015393;28;20053;-88
2021/04/20 13:17:22;;;;;;;6.97;4.10;;;9.90;60.60;;;;;;4996905;28;20077;-86